sensor_id;sensor_type;location;lat;lon;timestamp;P1;durP1;ratioP1;P2;durP2;ratioP2
19973;SDS011;10148;47.694;9.442;2022-11-20T00:01:04;3.67;;;2.10;;
19973;SDS011;10148;47.694;9.442;2022-11-20T00:03:30;3.10;;;2.60;;
19973;SDS011;10148;47.694;9.442;2022-11-20T00:06:00;4.30;;;2.23;;
19973;SDS011;10148;47.694;9.442;2022-11-20T00:08:26;3.97;;;2.13;;
19973;SDS011;10148;47.694;9.442;2022-11-20T00:10:52;5.93;;;1.80;;
19973;SDS011;10148;47.694;9.442;2022-11-20T00:13:17;4.67;;;3.40;;
19973;SDS011;10148;47.694;9.442;2022-11-20T00:15:43;3.47;;;2.50;;
19973;SDS011;10148;47.694;9.442;2022-11-20T00:18:08;3.90;;;2.50;;
19973;SDS011;10148;47.694;9.442;2022-11-20T00:20:34;4.40;;;2.90;;
19973;SDS011;10148;47.694;9.442;2022-11-20T00:22:59;3.20;;;2.20;;
19973;SDS011;10148;47.694;9.442;2022-11-20T00:25:25;4.07;;;2.67;;
19973;SDS011;10148;47.694;9.442;2022-11-20T00:27:50;4.50;;;2.80;;
19973;SDS011;10148;47.694;9.442;2022-11-20T00:30:16;5.33;;;2.87;;
19973;SDS011;10148;47.694;9.442;2022-11-20T00:32:42;4.23;;;2.50;;
19973;SDS011;10148;47.694;9.442;2022-11-20T00:35:07;3.73;;;2.50;;
19973;SDS011;10148;47.694;9.442;2022-11-20T00:37:33;3.30;;;2.60;;
19973;SDS011;10148;47.694;9.442;2022-11-20T00:39:58;5.33;;;2.97;;
19973;SDS011;10148;47.694;9.442;2022-11-20T00:42:24;5.13;;;2.90;;
19973;SDS011;10148;47.694;9.442;2022-11-20T00:44:49;5.83;;;3.10;;
19973;SDS011;10148;47.694;9.442;2022-11-20T00:47:15;3.17;;;2.67;;
19973;SDS011;10148;47.694;9.442;2022-11-20T00:49:41;4.10;;;3.00;;
19973;SDS011;10148;47.694;9.442;2022-11-20T00:52:06;4.87;;;3.30;;
19973;SDS011;10148;47.694;9.442;2022-11-20T00:54:32;6.13;;;3.40;;
19973;SDS011;10148;47.694;9.442;2022-11-20T00:56:57;3.77;;;2.57;;
19973;SDS011;10148;47.694;9.442;2022-11-20T00:59:23;5.00;;;3.43;;
19973;SDS011;10148;47.694;9.442;2022-11-20T01:01:48;4.83;;;3.00;;
19973;SDS011;10148;47.694;9.442;2022-11-20T01:04:14;5.80;;;3.30;;
19973;SDS011;10148;47.694;9.442;2022-11-20T01:06:39;6.37;;;3.30;;
19973;SDS011;10148;47.694;9.442;2022-11-20T01:09:09;5.90;;;3.43;;
19973;SDS011;10148;47.694;9.442;2022-11-20T01:11:37;4.40;;;3.30;;
19973;SDS011;10148;47.694;9.442;2022-11-20T01:14:06;5.73;;;3.30;;
19973;SDS011;10148;47.694;9.442;2022-11-20T01:16:35;4.40;;;3.30;;
19973;SDS011;10148;47.694;9.442;2022-11-20T01:19:04;4.23;;;2.90;;
19973;SDS011;10148;47.694;9.442;2022-11-20T01:21:32;7.27;;;3.30;;
19973;SDS011;10148;47.694;9.442;2022-11-20T01:24:02;5.13;;;3.30;;
19973;SDS011;10148;47.694;9.442;2022-11-20T01:26:30;8.27;;;3.70;;
19973;SDS011;10148;47.694;9.442;2022-11-20T01:28:57;5.73;;;3.63;;
19973;SDS011;10148;47.694;9.442;2022-11-20T01:31:25;6.43;;;3.30;;
19973;SDS011;10148;47.694;9.442;2022-11-20T01:33:56;3.53;;;3.17;;
19973;SDS011;10148;47.694;9.442;2022-11-20T01:36:24;3.70;;;2.63;;
19973;SDS011;10148;47.694;9.442;2022-11-20T01:38:51;4.53;;;3.20;;
19973;SDS011;10148;47.694;9.442;2022-11-20T01:41:18;4.47;;;3.30;;
19973;SDS011;10148;47.694;9.442;2022-11-20T01:44:03;4.53;;;3.17;;
19973;SDS011;10148;47.694;9.442;2022-11-20T01:46:30;5.03;;;3.23;;
19973;SDS011;10148;47.694;9.442;2022-11-20T01:51:55;5.53;;;2.97;;
19973;SDS011;10148;47.694;9.442;2022-11-20T01:54:27;4.40;;;3.50;;
19973;SDS011;10148;47.694;9.442;2022-11-20T01:57:00;4.03;;;3.20;;
19973;SDS011;10148;47.694;9.442;2022-11-20T01:59:29;6.77;;;3.40;;
19973;SDS011;10148;47.694;9.442;2022-11-20T02:01:55;4.80;;;2.70;;
19973;SDS011;10148;47.694;9.442;2022-11-20T02:04:20;4.97;;;3.20;;
19973;SDS011;10148;47.694;9.442;2022-11-20T02:06:58;4.90;;;3.27;;
19973;SDS011;10148;47.694;9.442;2022-11-20T02:09:25;5.70;;;4.37;;
19973;SDS011;10148;47.694;9.442;2022-11-20T02:11:52;4.50;;;3.30;;
19973;SDS011;10148;47.694;9.442;2022-11-20T02:14:18;5.17;;;3.17;;
19973;SDS011;10148;47.694;9.442;2022-11-20T02:16:45;4.47;;;3.07;;
19973;SDS011;10148;47.694;9.442;2022-11-20T02:19:16;6.60;;;3.50;;
19973;SDS011;10148;47.694;9.442;2022-11-20T02:21:58;6.30;;;3.20;;
19973;SDS011;10148;47.694;9.442;2022-11-20T02:24:30;4.33;;;3.27;;
19973;SDS011;10148;47.694;9.442;2022-11-20T02:27:00;4.33;;;2.90;;
19973;SDS011;10148;47.694;9.442;2022-11-20T02:29:33;5.17;;;2.77;;
19973;SDS011;10148;47.694;9.442;2022-11-20T02:32:04;3.57;;;2.87;;
19973;SDS011;10148;47.694;9.442;2022-11-20T02:34:30;4.97;;;3.37;;
19973;SDS011;10148;47.694;9.442;2022-11-20T02:36:56;5.07;;;3.07;;
19973;SDS011;10148;47.694;9.442;2022-11-20T02:39:24;4.03;;;2.60;;
19973;SDS011;10148;47.694;9.442;2022-11-20T02:41:52;5.33;;;4.10;;
19973;SDS011;10148;47.694;9.442;2022-11-20T02:44:19;4.83;;;2.90;;
19973;SDS011;10148;47.694;9.442;2022-11-20T02:46:45;5.23;;;3.27;;
19973;SDS011;10148;47.694;9.442;2022-11-20T02:49:11;5.57;;;3.03;;
19973;SDS011;10148;47.694;9.442;2022-11-20T02:51:36;3.73;;;2.87;;
19973;SDS011;10148;47.694;9.442;2022-11-20T02:54:02;4.93;;;2.90;;
19973;SDS011;10148;47.694;9.442;2022-11-20T02:56:28;3.33;;;2.87;;
19973;SDS011;10148;47.694;9.442;2022-11-20T02:58:54;4.77;;;3.23;;
19973;SDS011;10148;47.694;9.442;2022-11-20T03:01:20;4.53;;;2.93;;
19973;SDS011;10148;47.694;9.442;2022-11-20T03:03:46;4.50;;;3.13;;
19973;SDS011;10148;47.694;9.442;2022-11-20T03:06:13;3.30;;;3.00;;
19973;SDS011;10148;47.694;9.442;2022-11-20T03:08:39;5.83;;;3.57;;
19973;SDS011;10148;47.694;9.442;2022-11-20T03:11:06;3.63;;;2.80;;
19973;SDS011;10148;47.694;9.442;2022-11-20T03:13:32;6.33;;;2.90;;
19973;SDS011;10148;47.694;9.442;2022-11-20T03:15:58;4.13;;;3.13;;
19973;SDS011;10148;47.694;9.442;2022-11-20T03:18:29;3.53;;;2.73;;
19973;SDS011;10148;47.694;9.442;2022-11-20T03:20:58;3.83;;;2.80;;
19973;SDS011;10148;47.694;9.442;2022-11-20T03:23:24;3.90;;;2.83;;
19973;SDS011;10148;47.694;9.442;2022-11-20T03:25:50;5.50;;;2.60;;
19973;SDS011;10148;47.694;9.442;2022-11-20T03:28:15;3.03;;;2.53;;
19973;SDS011;10148;47.694;9.442;2022-11-20T03:30:41;6.13;;;2.90;;
19973;SDS011;10148;47.694;9.442;2022-11-20T03:33:07;3.57;;;2.50;;
19973;SDS011;10148;47.694;9.442;2022-11-20T03:35:32;3.20;;;2.60;;
19973;SDS011;10148;47.694;9.442;2022-11-20T03:37:58;3.90;;;2.50;;
19973;SDS011;10148;47.694;9.442;2022-11-20T03:40:23;3.20;;;2.40;;
19973;SDS011;10148;47.694;9.442;2022-11-20T03:42:49;5.03;;;2.77;;
19973;SDS011;10148;47.694;9.442;2022-11-20T03:45:15;3.77;;;2.57;;
19973;SDS011;10148;47.694;9.442;2022-11-20T03:47:42;3.90;;;2.57;;
19973;SDS011;10148;47.694;9.442;2022-11-20T03:50:09;3.67;;;2.63;;
19973;SDS011;10148;47.694;9.442;2022-11-20T03:52:37;4.80;;;2.47;;
19973;SDS011;10148;47.694;9.442;2022-11-20T03:55:03;3.30;;;2.43;;
19973;SDS011;10148;47.694;9.442;2022-11-20T03:57:29;4.13;;;2.37;;
19973;SDS011;10148;47.694;9.442;2022-11-20T03:59:55;4.67;;;2.43;;
19973;SDS011;10148;47.694;9.442;2022-11-20T04:02:21;4.50;;;2.40;;
19973;SDS011;10148;47.694;9.442;2022-11-20T04:04:46;3.57;;;2.37;;
19973;SDS011;10148;47.694;9.442;2022-11-20T04:07:12;5.53;;;2.20;;
19973;SDS011;10148;47.694;9.442;2022-11-20T04:09:37;4.53;;;2.40;;
19973;SDS011;10148;47.694;9.442;2022-11-20T04:12:03;3.07;;;2.30;;
19973;SDS011;10148;47.694;9.442;2022-11-20T04:14:29;3.23;;;2.60;;
19973;SDS011;10148;47.694;9.442;2022-11-20T04:16:54;4.33;;;2.60;;
19973;SDS011;10148;47.694;9.442;2022-11-20T04:19:20;3.63;;;2.40;;
19973;SDS011;10148;47.694;9.442;2022-11-20T04:21:45;2.90;;;1.93;;
19973;SDS011;10148;47.694;9.442;2022-11-20T04:24:11;3.47;;;2.57;;
19973;SDS011;10148;47.694;9.442;2022-11-20T04:26:37;3.73;;;2.50;;
19973;SDS011;10148;47.694;9.442;2022-11-20T04:29:02;4.93;;;2.30;;
19973;SDS011;10148;47.694;9.442;2022-11-20T04:31:29;3.03;;;2.40;;
19973;SDS011;10148;47.694;9.442;2022-11-20T04:34:02;3.33;;;2.20;;
19973;SDS011;10148;47.694;9.442;2022-11-20T04:36:29;3.80;;;2.63;;
19973;SDS011;10148;47.694;9.442;2022-11-20T04:38:57;3.77;;;2.43;;
19973;SDS011;10148;47.694;9.442;2022-11-20T04:41:24;3.67;;;2.33;;
19973;SDS011;10148;47.694;9.442;2022-11-20T04:43:52;3.23;;;2.13;;
19973;SDS011;10148;47.694;9.442;2022-11-20T04:46:24;3.90;;;1.80;;
19973;SDS011;10148;47.694;9.442;2022-11-20T04:48:50;3.03;;;2.10;;
19973;SDS011;10148;47.694;9.442;2022-11-20T04:51:16;3.77;;;2.40;;
19973;SDS011;10148;47.694;9.442;2022-11-20T04:53:41;3.40;;;2.20;;
19973;SDS011;10148;47.694;9.442;2022-11-20T04:56:08;3.50;;;2.40;;
19973;SDS011;10148;47.694;9.442;2022-11-20T04:58:35;3.63;;;2.60;;
19973;SDS011;10148;47.694;9.442;2022-11-20T05:01:05;3.80;;;2.20;;
19973;SDS011;10148;47.694;9.442;2022-11-20T05:03:32;4.17;;;2.10;;
19973;SDS011;10148;47.694;9.442;2022-11-20T05:06:01;2.37;;;2.03;;
19973;SDS011;10148;47.694;9.442;2022-11-20T05:08:28;5.43;;;2.23;;
19973;SDS011;10148;47.694;9.442;2022-11-20T05:10:58;4.20;;;2.07;;
19973;SDS011;10148;47.694;9.442;2022-11-20T05:13:28;5.87;;;2.00;;
19973;SDS011;10148;47.694;9.442;2022-11-20T05:15:54;2.67;;;1.73;;
19973;SDS011;10148;47.694;9.442;2022-11-20T05:18:19;2.47;;;1.90;;
19973;SDS011;10148;47.694;9.442;2022-11-20T05:20:45;2.43;;;2.03;;
19973;SDS011;10148;47.694;9.442;2022-11-20T05:23:10;2.17;;;1.87;;
19973;SDS011;10148;47.694;9.442;2022-11-20T05:25:36;3.37;;;1.83;;
19973;SDS011;10148;47.694;9.442;2022-11-20T05:28:01;2.17;;;1.97;;
19973;SDS011;10148;47.694;9.442;2022-11-20T05:30:27;2.83;;;1.80;;
19973;SDS011;10148;47.694;9.442;2022-11-20T05:32:53;2.53;;;1.90;;
19973;SDS011;10148;47.694;9.442;2022-11-20T05:35:18;3.27;;;1.60;;
19973;SDS011;10148;47.694;9.442;2022-11-20T05:37:44;4.30;;;2.20;;
19973;SDS011;10148;47.694;9.442;2022-11-20T05:40:09;2.53;;;1.70;;
19973;SDS011;10148;47.694;9.442;2022-11-20T05:42:36;3.17;;;2.10;;
19973;SDS011;10148;47.694;9.442;2022-11-20T05:45:02;2.13;;;1.60;;
19973;SDS011;10148;47.694;9.442;2022-11-20T05:47:31;2.10;;;1.87;;
19973;SDS011;10148;47.694;9.442;2022-11-20T05:49:58;4.03;;;1.80;;
19973;SDS011;10148;47.694;9.442;2022-11-20T05:52:24;2.00;;;1.70;;
19973;SDS011;10148;47.694;9.442;2022-11-20T05:54:49;1.93;;;1.57;;
19973;SDS011;10148;47.694;9.442;2022-11-20T05:57:16;1.77;;;1.40;;
19973;SDS011;10148;47.694;9.442;2022-11-20T05:59:42;1.20;;;1.07;;
19973;SDS011;10148;47.694;9.442;2022-11-20T06:02:08;2.70;;;1.53;;
19973;SDS011;10148;47.694;9.442;2022-11-20T06:04:34;1.40;;;1.20;;
19973;SDS011;10148;47.694;9.442;2022-11-20T06:06:59;2.10;;;1.30;;
19973;SDS011;10148;47.694;9.442;2022-11-20T06:09:25;1.83;;;1.70;;
19973;SDS011;10148;47.694;9.442;2022-11-20T06:11:50;4.43;;;1.60;;
19973;SDS011;10148;47.694;9.442;2022-11-20T06:14:16;3.03;;;1.83;;
19973;SDS011;10148;47.694;9.442;2022-11-20T06:16:41;2.07;;;1.37;;
19973;SDS011;10148;47.694;9.442;2022-11-20T06:19:07;2.37;;;1.37;;
19973;SDS011;10148;47.694;9.442;2022-11-20T06:21:32;2.10;;;1.20;;
19973;SDS011;10148;47.694;9.442;2022-11-20T06:23:58;4.70;;;2.40;;
19973;SDS011;10148;47.694;9.442;2022-11-20T06:26:25;3.80;;;2.40;;
19973;SDS011;10148;47.694;9.442;2022-11-20T06:28:52;2.10;;;1.50;;
19973;SDS011;10148;47.694;9.442;2022-11-20T06:31:19;4.30;;;2.10;;
19973;SDS011;10148;47.694;9.442;2022-11-20T06:33:46;3.33;;;1.63;;
19973;SDS011;10148;47.694;9.442;2022-11-20T06:36:13;2.13;;;1.80;;
19973;SDS011;10148;47.694;9.442;2022-11-20T06:38:40;2.00;;;1.80;;
19973;SDS011;10148;47.694;9.442;2022-11-20T06:41:06;2.43;;;1.80;;
19973;SDS011;10148;47.694;9.442;2022-11-20T06:43:35;4.87;;;2.23;;
19973;SDS011;10148;47.694;9.442;2022-11-20T06:46:00;5.43;;;2.77;;
19973;SDS011;10148;47.694;9.442;2022-11-20T06:48:27;4.53;;;1.80;;
19973;SDS011;10148;47.694;9.442;2022-11-20T06:50:54;2.67;;;1.50;;
19973;SDS011;10148;47.694;9.442;2022-11-20T06:53:19;2.90;;;2.00;;
19973;SDS011;10148;47.694;9.442;2022-11-20T06:55:46;3.03;;;1.97;;
19973;SDS011;10148;47.694;9.442;2022-11-20T06:58:13;4.03;;;2.00;;
19973;SDS011;10148;47.694;9.442;2022-11-20T07:00:39;2.90;;;1.90;;
19973;SDS011;10148;47.694;9.442;2022-11-20T07:03:05;2.93;;;1.70;;
19973;SDS011;10148;47.694;9.442;2022-11-20T07:05:32;2.80;;;1.43;;
19973;SDS011;10148;47.694;9.442;2022-11-20T07:07:58;2.63;;;1.93;;
19973;SDS011;10148;47.694;9.442;2022-11-20T07:10:24;1.47;;;1.33;;
19973;SDS011;10148;47.694;9.442;2022-11-20T07:12:51;2.43;;;1.27;;
19973;SDS011;10148;47.694;9.442;2022-11-20T07:15:17;3.30;;;1.87;;
19973;SDS011;10148;47.694;9.442;2022-11-20T07:17:43;2.90;;;1.60;;
19973;SDS011;10148;47.694;9.442;2022-11-20T07:20:09;2.13;;;1.00;;
19973;SDS011;10148;47.694;9.442;2022-11-20T07:22:35;2.00;;;1.30;;
19973;SDS011;10148;47.694;9.442;2022-11-20T07:25:00;2.10;;;1.60;;
19973;SDS011;10148;47.694;9.442;2022-11-20T07:27:26;1.10;;;1.00;;
19973;SDS011;10148;47.694;9.442;2022-11-20T07:29:52;1.47;;;1.27;;
19973;SDS011;10148;47.694;9.442;2022-11-20T07:32:18;2.23;;;1.40;;
19973;SDS011;10148;47.694;9.442;2022-11-20T07:34:44;2.20;;;1.67;;
19973;SDS011;10148;47.694;9.442;2022-11-20T07:37:09;2.73;;;1.10;;
19973;SDS011;10148;47.694;9.442;2022-11-20T07:39:35;1.40;;;1.23;;
19973;SDS011;10148;47.694;9.442;2022-11-20T07:42:00;2.33;;;1.50;;
19973;SDS011;10148;47.694;9.442;2022-11-20T07:44:26;2.80;;;1.90;;
19973;SDS011;10148;47.694;9.442;2022-11-20T07:46:51;5.17;;;1.70;;
19973;SDS011;10148;47.694;9.442;2022-11-20T07:49:17;1.80;;;1.40;;
19973;SDS011;10148;47.694;9.442;2022-11-20T07:51:43;1.50;;;1.33;;
19973;SDS011;10148;47.694;9.442;2022-11-20T07:54:08;4.77;;;2.17;;
19973;SDS011;10148;47.694;9.442;2022-11-20T07:56:34;2.03;;;1.20;;
19973;SDS011;10148;47.694;9.442;2022-11-20T07:58:59;6.13;;;3.20;;
19973;SDS011;10148;47.694;9.442;2022-11-20T08:01:25;5.10;;;2.00;;
19973;SDS011;10148;47.694;9.442;2022-11-20T08:03:50;14.50;;;6.37;;
19973;SDS011;10148;47.694;9.442;2022-11-20T08:06:16;1.73;;;1.37;;
19973;SDS011;10148;47.694;9.442;2022-11-20T08:08:43;1.73;;;1.30;;
19973;SDS011;10148;47.694;9.442;2022-11-20T08:11:09;20.47;;;6.57;;
19973;SDS011;10148;47.694;9.442;2022-11-20T08:13:53;17.27;;;5.87;;
19973;SDS011;10148;47.694;9.442;2022-11-20T08:16:37;14.50;;;5.20;;
19973;SDS011;10148;47.694;9.442;2022-11-20T08:19:06;2.37;;;1.33;;
19973;SDS011;10148;47.694;9.442;2022-11-20T08:21:32;2.27;;;1.63;;
19973;SDS011;10148;47.694;9.442;2022-11-20T08:23:58;5.80;;;2.90;;
19973;SDS011;10148;47.694;9.442;2022-11-20T08:26:24;14.57;;;7.63;;
19973;SDS011;10148;47.694;9.442;2022-11-20T08:28:54;4.83;;;2.60;;
19973;SDS011;10148;47.694;9.442;2022-11-20T08:31:20;8.23;;;3.30;;
19973;SDS011;10148;47.694;9.442;2022-11-20T08:33:47;20.47;;;12.33;;
19973;SDS011;10148;47.694;9.442;2022-11-20T08:36:12;5.90;;;5.30;;
19973;SDS011;10148;47.694;9.442;2022-11-20T08:38:38;1.53;;;1.30;;
19973;SDS011;10148;47.694;9.442;2022-11-20T08:41:04;2.63;;;1.90;;
19973;SDS011;10148;47.694;9.442;2022-11-20T08:43:48;1.57;;;1.40;;
19973;SDS011;10148;47.694;9.442;2022-11-20T08:46:22;1.73;;;1.60;;
19973;SDS011;10148;47.694;9.442;2022-11-20T08:48:49;1.90;;;1.20;;
19973;SDS011;10148;47.694;9.442;2022-11-20T08:51:14;1.60;;;1.20;;
19973;SDS011;10148;47.694;9.442;2022-11-20T08:53:41;2.00;;;1.17;;
19973;SDS011;10148;47.694;9.442;2022-11-20T08:56:07;2.30;;;1.37;;
19973;SDS011;10148;47.694;9.442;2022-11-20T08:58:32;2.53;;;2.03;;
19973;SDS011;10148;47.694;9.442;2022-11-20T09:00:58;1.87;;;1.20;;
19973;SDS011;10148;47.694;9.442;2022-11-20T09:03:23;1.53;;;1.30;;
19973;SDS011;10148;47.694;9.442;2022-11-20T09:05:55;1.00;;;0.90;;
19973;SDS011;10148;47.694;9.442;2022-11-20T09:08:25;2.27;;;1.13;;
19973;SDS011;10148;47.694;9.442;2022-11-20T09:10:51;1.57;;;1.40;;
19973;SDS011;10148;47.694;9.442;2022-11-20T09:13:17;1.50;;;1.00;;
19973;SDS011;10148;47.694;9.442;2022-11-20T09:15:43;1.17;;;1.07;;
19973;SDS011;10148;47.694;9.442;2022-11-20T09:18:08;1.37;;;0.90;;
19973;SDS011;10148;47.694;9.442;2022-11-20T09:20:34;2.27;;;1.07;;
19973;SDS011;10148;47.694;9.442;2022-11-20T09:23:00;2.07;;;1.20;;
19973;SDS011;10148;47.694;9.442;2022-11-20T09:25:25;1.00;;;0.90;;
19973;SDS011;10148;47.694;9.442;2022-11-20T09:27:55;0.73;;;0.60;;
19973;SDS011;10148;47.694;9.442;2022-11-20T09:30:21;2.83;;;1.13;;
19973;SDS011;10148;47.694;9.442;2022-11-20T09:32:47;0.90;;;0.90;;
19973;SDS011;10148;47.694;9.442;2022-11-20T09:35:12;1.30;;;1.20;;
19973;SDS011;10148;47.694;9.442;2022-11-20T09:37:39;1.93;;;1.30;;
19973;SDS011;10148;47.694;9.442;2022-11-20T09:40:05;1.90;;;0.87;;
19973;SDS011;10148;47.694;9.442;2022-11-20T09:48:20;4.13;;;1.10;;
19973;SDS011;10148;47.694;9.442;2022-11-20T09:54:19;1.90;;;1.00;;
19973;SDS011;10148;47.694;9.442;2022-11-20T09:56:51;2.93;;;1.30;;
19973;SDS011;10148;47.694;9.442;2022-11-20T10:04:53;3.20;;;1.20;;
19973;SDS011;10148;47.694;9.442;2022-11-20T10:10:04;1.00;;;0.90;;
19973;SDS011;10148;47.694;9.442;2022-11-20T10:12:52;2.57;;;1.03;;
19973;SDS011;10148;47.694;9.442;2022-11-20T10:21:12;3.20;;;1.07;;
19973;SDS011;10148;47.694;9.442;2022-11-20T10:26:38;2.90;;;0.70;;
19973;SDS011;10148;47.694;9.442;2022-11-20T10:29:13;3.33;;;0.80;;
19973;SDS011;10148;47.694;9.442;2022-11-20T10:31:42;1.00;;;0.87;;
19973;SDS011;10148;47.694;9.442;2022-11-20T10:36:46;2.13;;;0.80;;
19973;SDS011;10148;47.694;9.442;2022-11-20T10:42:00;0.73;;;0.57;;
19973;SDS011;10148;47.694;9.442;2022-11-20T10:44:26;0.83;;;0.60;;
19973;SDS011;10148;47.694;9.442;2022-11-20T10:47:15;1.53;;;0.67;;
19973;SDS011;10148;47.694;9.442;2022-11-20T10:49:43;2.10;;;0.70;;
19973;SDS011;10148;47.694;9.442;2022-11-20T10:52:21;2.00;;;0.90;;
19973;SDS011;10148;47.694;9.442;2022-11-20T11:00:22;0.50;;;0.40;;
19973;SDS011;10148;47.694;9.442;2022-11-20T11:02:49;1.00;;;0.57;;
19973;SDS011;10148;47.694;9.442;2022-11-20T11:05:33;0.80;;;0.70;;
19973;SDS011;10148;47.694;9.442;2022-11-20T11:08:10;0.70;;;0.60;;
19973;SDS011;10148;47.694;9.442;2022-11-20T11:10:41;0.80;;;0.50;;
19973;SDS011;10148;47.694;9.442;2022-11-20T11:13:23;0.70;;;0.50;;
19973;SDS011;10148;47.694;9.442;2022-11-20T11:15:51;0.60;;;0.43;;
19973;SDS011;10148;47.694;9.442;2022-11-20T11:18:24;1.53;;;0.53;;
19973;SDS011;10148;47.694;9.442;2022-11-20T11:20:58;1.50;;;0.50;;
19973;SDS011;10148;47.694;9.442;2022-11-20T11:23:30;0.50;;;0.47;;
19973;SDS011;10148;47.694;9.442;2022-11-20T11:25:58;1.33;;;0.30;;
19973;SDS011;10148;47.694;9.442;2022-11-20T11:28:26;1.43;;;0.80;;
19973;SDS011;10148;47.694;9.442;2022-11-20T11:30:53;0.60;;;0.57;;
19973;SDS011;10148;47.694;9.442;2022-11-20T11:33:26;0.70;;;0.60;;
19973;SDS011;10148;47.694;9.442;2022-11-20T11:35:54;1.73;;;0.50;;
19973;SDS011;10148;47.694;9.442;2022-11-20T11:38:32;3.30;;;0.50;;
19973;SDS011;10148;47.694;9.442;2022-11-20T11:41:01;1.40;;;0.63;;
19973;SDS011;10148;47.694;9.442;2022-11-20T11:43:29;1.47;;;0.63;;
19973;SDS011;10148;47.694;9.442;2022-11-20T11:46:26;1.17;;;0.60;;
19973;SDS011;10148;47.694;9.442;2022-11-20T11:48:58;1.23;;;0.50;;
19973;SDS011;10148;47.694;9.442;2022-11-20T11:51:32;0.90;;;0.73;;
19973;SDS011;10148;47.694;9.442;2022-11-20T11:54:05;3.70;;;0.90;;
19973;SDS011;10148;47.694;9.442;2022-11-20T11:56:45;1.30;;;0.90;;
19973;SDS011;10148;47.694;9.442;2022-11-20T11:59:12;2.30;;;0.50;;
19973;SDS011;10148;47.694;9.442;2022-11-20T12:07:20;1.33;;;0.70;;
19973;SDS011;10148;47.694;9.442;2022-11-20T12:10:13;1.07;;;0.40;;
19973;SDS011;10148;47.694;9.442;2022-11-20T12:14:02;1.50;;;0.40;;
19973;SDS011;10148;47.694;9.442;2022-11-20T12:15:58;1.23;;;0.57;;
19973;SDS011;10148;47.694;9.442;2022-11-20T12:18:24;0.37;;;0.33;;
19973;SDS011;10148;47.694;9.442;2022-11-20T12:21:00;0.60;;;0.60;;
19973;SDS011;10148;47.694;9.442;2022-11-20T12:31:58;0.90;;;0.57;;
19973;SDS011;10148;47.694;9.442;2022-11-20T12:40:27;1.43;;;0.90;;
19973;SDS011;10148;47.694;9.442;2022-11-20T12:43:11;0.70;;;0.50;;
19973;SDS011;10148;47.694;9.442;2022-11-20T12:49:34;1.13;;;0.70;;
19973;SDS011;10148;47.694;9.442;2022-11-20T12:52:22;1.23;;;0.50;;
19973;SDS011;10148;47.694;9.442;2022-11-20T12:55:21;0.83;;;0.57;;
19973;SDS011;10148;47.694;9.442;2022-11-20T12:58:30;2.73;;;1.30;;
19973;SDS011;10148;47.694;9.442;2022-11-20T13:01:09;1.80;;;0.77;;
19973;SDS011;10148;47.694;9.442;2022-11-20T13:06:42;2.40;;;1.70;;
19973;SDS011;10148;47.694;9.442;2022-11-20T13:09:10;3.37;;;1.70;;
19973;SDS011;10148;47.694;9.442;2022-11-20T13:11:43;6.03;;;1.67;;
19973;SDS011;10148;47.694;9.442;2022-11-20T13:14:31;1.00;;;0.70;;
19973;SDS011;10148;47.694;9.442;2022-11-20T13:17:14;0.50;;;0.50;;
19973;SDS011;10148;47.694;9.442;2022-11-20T13:19:47;4.80;;;3.00;;
19973;SDS011;10148;47.694;9.442;2022-11-20T13:22:25;0.93;;;0.60;;
19973;SDS011;10148;47.694;9.442;2022-11-20T13:24:51;2.40;;;0.70;;
19973;SDS011;10148;47.694;9.442;2022-11-20T13:27:18;3.53;;;2.10;;
19973;SDS011;10148;47.694;9.442;2022-11-20T13:29:47;1.00;;;0.67;;
19973;SDS011;10148;47.694;9.442;2022-11-20T13:32:36;1.60;;;0.73;;
19973;SDS011;10148;47.694;9.442;2022-11-20T13:38:00;0.83;;;0.73;;
19973;SDS011;10148;47.694;9.442;2022-11-20T13:40:27;2.40;;;0.60;;
19973;SDS011;10148;47.694;9.442;2022-11-20T13:45:26;1.30;;;1.13;;
19973;SDS011;10148;47.694;9.442;2022-11-20T13:47:54;3.40;;;2.20;;
19973;SDS011;10148;47.694;9.442;2022-11-20T13:50:21;1.75;;;1.08;;
19973;SDS011;10148;47.694;9.442;2022-11-20T13:53:15;1.55;;;1.02;;
19973;SDS011;10148;47.694;9.442;2022-11-20T13:58:35;1.73;;;0.50;;
19973;SDS011;10148;47.694;9.442;2022-11-20T14:01:21;2.20;;;0.63;;
19973;SDS011;10148;47.694;9.442;2022-11-20T14:03:49;1.45;;;0.60;;
19973;SDS011;10148;47.694;9.442;2022-11-20T14:08:48;1.67;;;0.57;;
19973;SDS011;10148;47.694;9.442;2022-11-20T14:13:54;1.33;;;0.43;;
19973;SDS011;10148;47.694;9.442;2022-11-20T14:16:26;1.17;;;0.40;;
19973;SDS011;10148;47.694;9.442;2022-11-20T14:18:53;0.53;;;0.40;;
19973;SDS011;10148;47.694;9.442;2022-11-20T14:21:24;1.00;;;0.50;;
19973;SDS011;10148;47.694;9.442;2022-11-20T14:24:09;1.30;;;0.70;;
19973;SDS011;10148;47.694;9.442;2022-11-20T14:26:37;2.63;;;0.50;;
19973;SDS011;10148;47.694;9.442;2022-11-20T14:29:14;1.05;;;0.55;;
19973;SDS011;10148;47.694;9.442;2022-11-20T14:31:43;0.80;;;0.47;;
19973;SDS011;10148;47.694;9.442;2022-11-20T14:34:14;0.75;;;0.50;;
19973;SDS011;10148;47.694;9.442;2022-11-20T14:36:43;2.50;;;0.45;;
19973;SDS011;10148;47.694;9.442;2022-11-20T14:39:11;0.50;;;0.40;;
19973;SDS011;10148;47.694;9.442;2022-11-20T14:41:50;0.40;;;0.40;;
19973;SDS011;10148;47.694;9.442;2022-11-20T14:44:17;0.73;;;0.73;;
19973;SDS011;10148;47.694;9.442;2022-11-20T14:46:44;0.30;;;0.30;;
19973;SDS011;10148;47.694;9.442;2022-11-20T14:49:10;1.30;;;0.63;;
19973;SDS011;10148;47.694;9.442;2022-11-20T14:51:39;2.92;;;0.57;;
19973;SDS011;10148;47.694;9.442;2022-11-20T14:54:14;1.13;;;0.30;;
19973;SDS011;10148;47.694;9.442;2022-11-20T14:56:56;1.27;;;0.40;;
19973;SDS011;10148;47.694;9.442;2022-11-20T14:59:36;2.53;;;0.67;;
19973;SDS011;10148;47.694;9.442;2022-11-20T15:02:06;1.13;;;0.40;;
19973;SDS011;10148;47.694;9.442;2022-11-20T15:04:56;0.80;;;0.47;;
19973;SDS011;10148;47.694;9.442;2022-11-20T15:07:43;1.43;;;0.37;;
19973;SDS011;10148;47.694;9.442;2022-11-20T15:12:48;0.63;;;0.50;;
19973;SDS011;10148;47.694;9.442;2022-11-20T15:15:16;1.13;;;0.57;;
19973;SDS011;10148;47.694;9.442;2022-11-20T15:17:55;1.37;;;0.60;;
19973;SDS011;10148;47.694;9.442;2022-11-20T15:20:20;0.83;;;0.47;;
19973;SDS011;10148;47.694;9.442;2022-11-20T15:22:51;1.87;;;0.53;;
19973;SDS011;10148;47.694;9.442;2022-11-20T15:25:16;0.33;;;0.20;;
19973;SDS011;10148;47.694;9.442;2022-11-20T15:27:43;1.93;;;0.60;;
19973;SDS011;10148;47.694;9.442;2022-11-20T15:30:14;4.27;;;0.70;;
19973;SDS011;10148;47.694;9.442;2022-11-20T15:32:42;2.87;;;1.17;;
19973;SDS011;10148;47.694;9.442;2022-11-20T15:35:09;1.27;;;0.57;;
19973;SDS011;10148;47.694;9.442;2022-11-20T15:37:35;0.60;;;0.53;;
19973;SDS011;10148;47.694;9.442;2022-11-20T15:40:02;0.80;;;0.60;;
19973;SDS011;10148;47.694;9.442;2022-11-20T15:42:28;2.67;;;0.77;;
19973;SDS011;10148;47.694;9.442;2022-11-20T15:44:54;1.67;;;0.67;;
19973;SDS011;10148;47.694;9.442;2022-11-20T15:47:20;0.70;;;0.40;;
19973;SDS011;10148;47.694;9.442;2022-11-20T15:49:59;1.13;;;0.70;;
19973;SDS011;10148;47.694;9.442;2022-11-20T15:52:24;1.27;;;0.47;;
19973;SDS011;10148;47.694;9.442;2022-11-20T15:54:50;0.73;;;0.53;;
19973;SDS011;10148;47.694;9.442;2022-11-20T15:57:15;2.10;;;0.70;;
19973;SDS011;10148;47.694;9.442;2022-11-20T15:59:41;0.67;;;0.60;;
19973;SDS011;10148;47.694;9.442;2022-11-20T16:02:10;4.10;;;2.63;;
19973;SDS011;10148;47.694;9.442;2022-11-20T16:04:36;1.50;;;1.10;;
19973;SDS011;10148;47.694;9.442;2022-11-20T16:07:02;3.33;;;1.50;;
19973;SDS011;10148;47.694;9.442;2022-11-20T16:09:28;3.70;;;1.10;;
19973;SDS011;10148;47.694;9.442;2022-11-20T16:11:53;2.00;;;0.93;;
19973;SDS011;10148;47.694;9.442;2022-11-20T16:14:19;1.50;;;0.90;;
19973;SDS011;10148;47.694;9.442;2022-11-20T16:17:03;1.60;;;0.63;;
19973;SDS011;10148;47.694;9.442;2022-11-20T16:19:29;2.57;;;0.87;;
19973;SDS011;10148;47.694;9.442;2022-11-20T16:21:54;5.70;;;0.90;;